Time;durP1;ratioP1;P1;durP2;ratioP2;P2;SDS_P1;SDS_P2;PMS_P1;PMS_P2;Temp;Humidity;BMP_temperature;BMP_pressure;BME280_temperature;BME280_humidity;BME280_pressure;Samples;Min_cycle;Max_cycle;Signal;HPM_P1;HPM_P2
2021/09/10 00:00:48;;;;;;;12.27;7.82;;;;;;;14.26;79.89;99615.00;5113783;28;20487;-60
2021/09/10 00:03:13;;;;;;;11.73;8.65;;;;;;;14.30;80.39;99624.47;5119812;27;20460;-61
2021/09/10 00:05:39;;;;;;;12.88;8.23;;;;;;;14.28;80.31;99621.09;5133887;27;20088;-61
2021/09/10 00:08:04;;;;;;;11.20;8.18;;;;;;;14.23;80.26;99612.59;5134449;27;20076;-61
2021/09/10 00:10:31;;;;;;;16.17;9.05;;;;;;;14.23;80.35;99615.28;5133052;27;20023;-61
2021/09/10 00:13:00;;;;;;;10.20;8.45;;;;;;;14.03;80.85;99586.66;5132661;27;20027;-61
2021/09/10 00:15:26;;;;;;;13.85;9.05;;;;;;;14.12;80.38;99587.59;5113841;28;20039;-60
2021/09/10 00:17:52;;;;;;;11.75;8.48;;;;;;;14.25;80.51;99607.94;5113407;28;20037;-61
2021/09/10 00:20:17;;;;;;;13.68;8.30;;;;;;;14.28;80.36;99613.00;5113495;28;20112;-61
2021/09/10 00:22:43;;;;;;;16.00;8.95;;;;;;;14.22;80.51;99603.69;5113374;28;20066;-62
2021/09/10 00:25:09;;;;;;;11.95;8.73;;;;;;;14.24;80.72;99615.16;5128699;27;20036;-62
2021/09/10 00:27:35;;;;;;;14.27;9.25;;;;;;;14.21;80.51;99610.06;5113731;27;20397;-61
2021/09/10 00:30:01;;;;;;;13.80;8.35;;;;;;;14.21;80.53;99607.38;5113975;28;20039;-60
2021/09/10 00:32:27;;;;;;;11.65;8.68;;;;;;;14.13;80.57;99594.66;5113309;28;20384;-59
2021/09/10 00:34:53;;;;;;;17.10;8.77;;;;;;;14.19;80.81;99615.59;5078159;28;20549;-62
2021/09/10 00:37:18;;;;;;;12.02;8.77;;;;;;;14.22;80.97;99609.06;5112370;28;20027;-63
2021/09/10 00:39:44;;;;;;;13.07;8.60;;;;;;;14.22;80.77;99609.06;5114018;27;20072;-61
2021/09/10 00:42:09;;;;;;;10.10;8.48;;;;;;;14.20;80.39;99600.28;5112987;27;20111;-60
2021/09/10 00:44:35;;;;;;;12.25;9.50;;;;;;;14.22;80.80;99598.28;5112446;28;20031;-62
2021/09/10 00:47:00;;;;;;;12.35;9.23;;;;;;;14.35;80.74;99598.78;5112880;28;20092;-60
2021/09/10 00:49:26;;;;;;;13.88;9.25;;;;;;;14.26;80.29;99582.69;5111927;28;20028;-60
2021/09/10 00:51:51;;;;;;;14.02;9.15;;;;;;;14.53;80.24;99603.28;5113635;27;20035;-62
2021/09/10 00:54:17;;;;;;;17.27;9.20;;;;;;;14.62;79.73;99604.22;5112698;28;20039;-62
2021/09/10 00:56:43;;;;;;;19.95;8.48;;;;;;;14.35;79.20;99550.31;5111999;28;20028;-60
2021/09/10 00:59:08;;;;;;;16.23;9.05;;;;;;;14.73;78.88;99592.38;5112966;28;20077;-61
2021/09/10 01:01:34;;;;;;;16.10;8.52;;;;;;;14.83;78.62;99598.53;5112461;28;20063;-62
2021/09/10 01:04:02;;;;;;;17.88;9.07;;;;;;;14.87;78.39;99604.44;5114207;27;20035;-60
2021/09/10 01:06:29;;;;;;;14.57;9.07;;;;;;;14.90;78.32;99607.66;5112583;27;20110;-61
2021/09/10 01:08:57;;;;;;;17.40;8.93;;;;;;;14.90;78.09;99599.56;5112313;27;20457;-60
2021/09/10 01:11:24;;;;;;;12.57;8.43;;;;;;;14.93;78.09;99599.25;5112480;28;20059;-61
2021/09/10 01:13:50;;;;;;;14.52;8.82;;;;;;;14.95;77.97;99599.13;5112600;28;20066;-61
2021/09/10 01:16:16;;;;;;;11.85;8.50;;;;;;;14.98;78.03;99598.78;5121306;27;20031;-62
2021/09/10 01:18:42;;;;;;;13.65;9.38;;;;;;;14.83;77.72;99570.72;5131334;27;20033;-61
2021/09/10 01:21:07;;;;;;;11.63;8.23;;;;;;;14.85;77.49;99561.47;5133005;27;20102;-61
2021/09/10 01:23:33;;;;;;;12.35;8.10;;;;;;;15.10;77.26;99602.06;5133772;27;20023;-62
2021/09/10 01:25:59;;;;;;;10.80;9.00;;;;;;;15.14;76.90;99583.69;5132463;27;20123;-60
2021/09/10 01:28:24;;;;;;;10.50;8.13;;;;;;;15.13;77.01;99585.56;5130656;27;20031;-61
2021/09/10 01:30:50;;;;;;;11.73;8.63;;;;;;;15.15;76.81;99583.56;5133029;27;20031;-61
2021/09/10 01:33:15;;;;;;;13.57;8.88;;;;;;;15.18;76.72;99590.47;5132762;27;20075;-60
2021/09/10 01:35:41;;;;;;;14.13;8.50;;;;;;;15.23;76.64;99590.00;5124888;27;20035;-60
2021/09/10 01:38:07;;;;;;;13.68;8.68;;;;;;;15.28;76.46;99593.91;5109642;27;20504;-61
2021/09/10 01:40:34;;;;;;;10.98;8.70;;;;;;;15.33;76.10;99583.47;5128187;27;20019;-60
2021/09/10 01:42:59;;;;;;;13.63;8.82;;;;;;;15.29;75.97;99579.41;5112443;28;20389;-62
2021/09/10 01:45:25;;;;;;;14.95;8.13;;;;;;;15.33;76.04;99586.19;5112129;28;20032;-60
2021/09/10 01:47:51;;;;;;;12.18;8.60;;;;;;;15.31;75.95;99582.78;5120155;27;20460;-60
2021/09/10 01:50:18;;;;;;;14.20;8.40;;;;;;;15.38;75.74;99590.25;5132135;27;20468;-60
2021/09/10 01:52:44;;;;;;;11.55;8.38;;;;;;;15.36;75.80;99585.84;5127376;27;20024;-60
2021/09/10 01:55:12;;;;;;;10.85;8.45;;;;;;;15.35;75.71;99584.16;5123811;27;20031;-60
2021/09/10 01:57:38;;;;;;;11.98;8.80;;;;;;;15.35;75.70;99581.47;5125098;27;20032;-61
2021/09/10 02:00:05;;;;;;;12.15;8.30;;;;;;;15.35;76.07;99572.53;5111385;28;20245;-62
2021/09/10 02:02:31;;;;;;;16.13;8.43;;;;;;;15.25;75.83;99578.06;5112113;28;20114;-60
2021/09/10 02:04:57;;;;;;;13.05;8.45;;;;;;;15.01;76.08;99551.78;5112181;27;20521;-60
2021/09/10 02:07:22;;;;;;;15.75;9.10;;;;;;;15.07;76.39;99570.00;5131045;27;20023;-59
2021/09/10 02:09:47;;;;;;;12.10;8.70;;;;;;;15.08;76.83;99582.50;5131480;27;20031;-60
2021/09/10 02:12:13;;;;;;;12.40;8.70;;;;;;;15.06;76.83;99588.06;5132311;27;20054;-61
2021/09/10 02:14:38;;;;;;;14.50;8.57;;;;;;;15.00;76.76;99563.56;5131585;27;20030;-62
2021/09/10 02:17:04;;;;;;;13.95;8.55;;;;;;;15.10;76.67;99568.84;5131744;27;20031;-63
2021/09/10 02:19:30;;;;;;;14.82;8.50;;;;;;;15.10;76.41;99574.25;5129641;27;20031;-61
2021/09/10 02:21:56;;;;;;;11.48;8.80;;;;;;;15.10;76.49;99564.31;5131512;27;20041;-62
2021/09/10 02:24:22;;;;;;;11.50;8.63;;;;;;;15.13;76.65;99565.84;5131617;27;20027;-61
2021/09/10 02:26:48;;;;;;;12.02;8.93;;;;;;;15.13;76.57;99573.94;5131877;27;20095;-61
2021/09/10 02:29:13;;;;;;;12.25;8.65;;;;;;;15.14;76.53;99570.22;5130466;27;20388;-61
2021/09/10 02:31:40;;;;;;;13.35;8.25;;;;;;;15.11;76.22;99559.75;5116854;27;20063;-61
2021/09/10 02:34:06;;;;;;;10.35;8.27;;;;;;;15.13;76.56;99576.63;5110782;28;20491;-60
2021/09/10 02:36:34;;;;;;;12.23;8.70;;;;;;;14.97;76.43;99548.59;5111318;28;20035;-62
2021/09/10 02:39:00;;;;;;;10.95;8.68;;;;;;;15.16;76.33;99571.75;5111201;28;20449;-61
2021/09/10 02:41:25;;;;;;;12.20;9.45;;;;;;;15.10;76.41;99556.22;5110958;28;20037;-61
2021/09/10 02:43:51;;;;;;;12.30;8.18;;;;;;;15.17;76.06;99578.00;5111969;27;20114;-60
2021/09/10 02:46:16;;;;;;;11.82;8.45;;;;;;;15.11;76.32;99566.00;5110847;28;20028;-61
2021/09/10 02:48:41;;;;;;;9.90;8.70;;;;;;;15.06;76.49;99579.09;5110612;28;20027;-60
2021/09/10 02:51:07;;;;;;;12.60;8.55;;;;;;;15.05;76.56;99563.94;5110982;28;20037;-62
2021/09/10 02:53:32;;;;;;;14.85;8.50;;;;;;;15.03;76.54;99577.59;5110305;28;20118;-61
2021/09/10 02:55:59;;;;;;;14.77;8.63;;;;;;;15.02;76.71;99581.28;5111792;28;20037;-60
2021/09/10 02:58:24;;;;;;;10.82;8.50;;;;;;;14.99;76.81;99581.63;5110994;28;20035;-60
2021/09/10 03:00:50;;;;;;;12.15;9.00;;;;;;;15.06;76.67;99588.06;5111156;28;20035;-60
2021/09/10 03:03:15;;;;;;;10.55;8.15;;;;;;;15.09;76.63;99599.53;5110180;28;20078;-61
2021/09/10 03:05:41;;;;;;;13.05;8.63;;;;;;;15.07;76.44;99595.13;5110341;28;20107;-60
2021/09/10 03:08:07;;;;;;;11.98;9.23;;;;;;;15.12;76.60;99593.81;5110888;28;20032;-60
2021/09/10 03:10:32;;;;;;;13.35;8.50;;;;;;;15.10;76.46;99585.03;5112153;28;20031;-61
2021/09/10 03:12:58;;;;;;;12.57;8.45;;;;;;;15.17;76.13;99602.25;5110628;28;20035;-61
2021/09/10 03:15:24;;;;;;;10.32;8.15;;;;;;;15.16;76.23;99593.34;5110064;28;20218;-60
2021/09/10 03:17:58;;;;;;;14.98;8.35;;;;;;;15.20;75.97;99593.88;5126565;28;20038;-60
2021/09/10 03:20:23;;;;;;;12.32;8.90;;;;;;;15.16;76.15;99598.72;5129793;27;20027;-62
2021/09/10 03:22:49;;;;;;;13.20;9.60;;;;;;;15.11;76.23;99597.50;5130207;28;20039;-61
2021/09/10 03:25:15;;;;;;;14.05;9.00;;;;;;;15.11;76.55;99602.91;5130467;27;20034;-61
2021/09/10 03:27:40;;;;;;;13.07;9.32;;;;;;;15.12;76.45;99602.75;5131786;27;20175;-60
2021/09/10 03:30:07;;;;;;;15.38;9.75;;;;;;;15.18;76.21;99610.19;5131150;27;20035;-61
2021/09/10 03:32:34;;;;;;;15.05;9.07;;;;;;;15.34;76.03;99604.06;5128898;27;20506;-62
2021/09/10 03:35:00;;;;;;;13.73;9.48;;;;;;;15.85;74.58;99603.25;5130772;27;20071;-61
2021/09/10 03:37:25;;;;;;;10.80;8.23;;;;;;;16.50;71.94;99603.56;5110743;28;20047;-62
2021/09/10 03:39:51;;;;;;;11.30;8.63;;;;;;;17.22;68.96;99596.63;5119586;28;20105;-63
2021/09/10 03:42:17;;;;;;;12.00;8.63;;;;;;;17.77;66.92;99588.63;5130717;27;20454;-62
2021/09/10 03:44:42;;;;;;;12.77;8.90;;;;;;;18.03;65.45;99592.91;5129178;27;20076;-60
2021/09/10 03:47:08;;;;;;;12.70;8.18;;;;;;;18.03;65.69;99596.50;5131229;27;20076;-61
2021/09/10 03:49:34;;;;;;;11.98;8.77;;;;;;;17.81;66.17;99603.50;5131444;27;20102;-62
2021/09/10 03:52:01;;;;;;;13.90;9.23;;;;;;;17.43;67.50;99595.22;5130868;27;20491;-63
2021/09/10 03:54:26;;;;;;;11.48;8.45;;;;;;;17.16;68.62;99603.56;5130594;27;20459;-62
2021/09/10 03:56:52;;;;;;;12.20;8.50;;;;;;;16.92;69.54;99607.94;5129357;27;20129;-62
2021/09/10 03:59:18;;;;;;;13.50;8.75;;;;;;;16.83;69.92;99613.53;5131595;27;20084;-62
2021/09/10 04:01:43;;;;;;;13.60;8.63;;;;;;;16.72;70.52;99604.78;5134429;27;20429;-62
2021/09/10 04:04:08;;;;;;;11.60;8.18;;;;;;;16.72;70.67;99607.47;5134607;27;20358;-60
2021/09/10 04:06:34;;;;;;;12.93;8.30;;;;;;;16.69;70.62;99605.13;5134625;27;20034;-62
2021/09/10 04:09:00;;;;;;;10.93;8.75;;;;;;;16.74;70.51;99618.97;5135057;27;20027;-61
2021/09/10 04:11:25;;;;;;;11.40;8.85;;;;;;;16.72;70.68;99625.53;5131909;27;20019;-62
2021/09/10 04:13:50;;;;;;;11.75;8.77;;;;;;;16.67;70.49;99609.84;5133820;27;20071;-61
2021/09/10 04:16:16;;;;;;;11.55;8.90;;;;;;;16.74;70.68;99629.78;5134163;27;20456;-61
2021/09/10 04:18:41;;;;;;;13.70;8.80;;;;;;;16.70;70.59;99609.50;5133918;27;20517;-61
2021/09/10 04:21:07;;;;;;;13.02;8.70;;;;;;;16.70;70.90;99625.72;5133093;27;20388;-61
2021/09/10 04:23:32;;;;;;;11.10;8.00;;;;;;;16.73;71.11;99630.78;5132671;27;20384;-62
2021/09/10 04:25:58;;;;;;;11.15;8.70;;;;;;;16.61;70.93;99615.91;5134079;27;20043;-61
2021/09/10 04:28:23;;;;;;;12.30;8.90;;;;;;;16.75;70.76;99652.22;5133862;27;20035;-62
2021/09/10 04:30:48;;;;;;;10.18;8.25;;;;;;;16.81;70.93;99643.47;5132592;27;20549;-62
2021/09/10 04:33:14;;;;;;;13.73;9.30;;;;;;;16.88;70.65;99635.50;5134245;27;20111;-61
2021/09/10 04:35:39;;;;;;;10.02;8.13;;;;;;;16.98;70.34;99638.91;5126041;27;20030;-61
2021/09/10 04:38:05;;;;;;;13.02;8.55;;;;;;;17.06;69.45;99630.78;5113348;27;20550;-61
2021/09/10 04:40:30;;;;;;;10.73;8.15;;;;;;;17.22;69.39;99637.19;5113589;28;20078;-61
2021/09/10 04:42:56;;;;;;;11.88;8.60;;;;;;;17.41;68.81;99638.66;5113123;28;20054;-61
2021/09/10 04:45:22;;;;;;;14.90;8.75;;;;;;;17.39;68.06;99604.69;5111688;28;20087;-61
2021/09/10 04:47:48;;;;;;;11.18;8.15;;;;;;;17.84;67.13;99649.16;5114825;27;20035;-62
2021/09/10 04:50:15;;;;;;;12.75;8.48;;;;;;;18.11;66.19;99635.38;5113060;28;20381;-60
2021/09/10 04:52:41;;;;;;;12.38;8.55;;;;;;;18.39;65.38;99643.84;5113225;28;20028;-61
2021/09/10 04:55:08;;;;;;;14.75;8.88;;;;;;;18.51;64.56;99611.75;5113121;28;20031;-61
2021/09/10 04:57:34;;;;;;;12.30;8.52;;;;;;;18.87;64.00;99645.53;5113178;28;20362;-62
2021/09/10 04:59:59;;;;;;;10.85;8.25;;;;;;;19.04;62.91;99629.97;5112642;27;20114;-60
2021/09/10 05:02:25;;;;;;;9.68;8.55;;;;;;;19.27;62.39;99638.03;5124233;27;20110;-60
2021/09/10 05:04:51;;;;;;;15.68;8.52;;;;;;;19.54;61.57;99638.47;5133766;27;20153;-62
2021/09/10 05:07:17;;;;;;;11.02;8.13;;;;;;;19.74;60.96;99648.72;5133033;27;20031;-62
2021/09/10 05:09:42;;;;;;;15.32;8.63;;;;;;;19.96;60.47;99641.53;5133032;27;20487;-61
2021/09/10 05:12:08;;;;;;;11.98;8.65;;;;;;;20.19;59.52;99635.13;5130575;27;20023;-62
2021/09/10 05:14:33;;;;;;;11.60;8.43;;;;;;;20.43;58.76;99639.34;5133436;27;20070;-62
2021/09/10 05:16:59;;;;;;;13.57;8.15;;;;;;;20.61;57.75;99632.63;5132692;27;20471;-62
2021/09/10 05:19:24;;;;;;;14.18;9.27;;;;;;;20.89;57.50;99626.41;5133047;27;20035;-62
2021/09/10 05:21:50;;;;;;;12.50;8.60;;;;;;;21.22;56.49;99634.00;5133043;27;20182;-62
2021/09/10 05:24:15;;;;;;;11.52;8.02;;;;;;;21.60;54.66;99636.31;5133394;27;20117;-62
2021/09/10 05:26:41;;;;;;;17.00;9.18;;;;;;;22.25;53.56;99639.78;5130494;27;20051;-62
2021/09/10 05:29:06;;;;;;;15.25;7.55;;;;;;;23.48;50.58;99635.06;5132420;27;20484;-61
2021/09/10 05:31:32;;;;;;;14.40;8.15;;;;;;;25.07;45.78;99608.94;5132999;27;20042;-63
2021/09/10 05:33:57;;;;;;;13.77;8.38;;;;;;;26.06;43.28;99639.31;5133462;27;20049;-61
2021/09/10 05:36:23;;;;;;;12.82;7.68;;;;;;;26.39;42.64;99635.31;5120562;27;20169;-61
2021/09/10 05:38:48;;;;;;;12.15;7.22;;;;;;;27.48;40.20;99621.47;5112838;27;20465;-61
2021/09/10 05:41:14;;;;;;;13.27;7.05;;;;;;;29.59;35.74;99622.81;5112206;28;20024;-61
2021/09/10 05:43:39;;;;;;;13.10;7.75;;;;;;;31.40;32.22;99635.69;5127595;27;20030;-64
2021/09/10 05:46:05;;;;;;;9.95;7.45;;;;;;;32.46;30.68;99639.47;5131742;27;20042;-61
2021/09/10 05:48:30;;;;;;;10.82;7.53;;;;;;;33.55;28.32;99601.44;5128810;27;20123;-62
2021/09/10 05:50:56;;;;;;;12.40;6.88;;;;;;;35.47;25.46;99630.66;5130479;27;20128;-61
2021/09/10 05:53:21;;;;;;;9.40;6.95;;;;;;;36.83;24.10;99624.94;5131639;27;20027;-62
2021/09/10 05:55:47;;;;;;;8.90;6.03;;;;;;;37.70;22.25;99624.47;5129707;27;20026;-60
2021/09/10 05:58:12;;;;;;;9.48;6.95;;;;;;;38.07;21.72;99633.75;5130244;27;20110;-62
2021/09/10 06:00:38;;;;;;;7.53;6.00;;;;;;;38.05;21.72;99634.09;5131154;27;20126;-61
2021/09/10 06:03:04;;;;;;;13.32;6.38;;;;;;;38.01;21.83;99635.84;5129276;27;20035;-62
2021/09/10 06:05:30;;;;;;;7.72;5.50;;;;;;;38.38;21.46;99630.28;5130545;27;20034;-63
2021/09/10 06:07:55;;;;;;;7.28;6.22;;;;;;;38.11;21.19;99631.16;5129778;27;20030;-62
2021/09/10 06:10:21;;;;;;;6.45;5.80;;;;;;;38.04;21.08;99626.00;5130606;27;20035;-64
2021/09/10 06:12:47;;;;;;;7.70;5.75;;;;;;;39.05;19.80;99625.81;5130623;27;20043;-63
2021/09/10 06:15:13;;;;;;;9.82;5.78;;;;;;;40.47;18.31;99624.28;5129993;27;20114;-64
2021/09/10 06:17:40;;;;;;;11.68;5.82;;;;;;;41.46;17.21;99619.78;5126540;27;20027;-63
2021/09/10 06:20:06;;;;;;;6.47;5.85;;;;;;;42.29;16.61;99621.44;5131000;27;20035;-63
2021/09/10 06:22:32;;;;;;;7.38;5.70;;;;;;;41.72;17.37;99629.25;5131274;27;20039;-61
2021/09/10 06:24:58;;;;;;;7.43;5.30;;;;;;;40.55;18.50;99636.66;5131404;27;20487;-62
2021/09/10 06:27:24;;;;;;;6.82;5.45;;;;;;;39.37;19.24;99623.03;5131291;27;20043;-69
2021/09/10 06:29:49;;;;;;;5.93;5.28;;;;;;;39.44;19.18;99631.00;5093750;28;20108;-64
2021/09/10 06:32:15;;;;;;;9.70;5.88;;;;;;;38.08;20.34;99629.81;5109006;28;20034;-65
2021/09/10 06:34:41;;;;;;;8.07;5.72;;;;;;;35.81;23.68;99635.28;5111404;28;20032;-64
2021/09/10 06:37:06;;;;;;;6.95;5.47;;;;;;;33.75;26.31;99633.81;5128811;27;20478;-67
2021/09/10 06:39:32;;;;;;;6.20;5.53;;;;;;;31.74;28.98;99648.31;5131746;27;20167;-65
2021/09/10 06:41:57;;;;;;;6.15;5.55;;;;;;;29.93;32.27;99655.81;5128299;27;20042;-65
2021/09/10 06:44:24;;;;;;;7.63;5.47;;;;;;;28.63;34.44;99652.97;5131622;27;20114;-65
2021/09/10 06:46:49;;;;;;;6.22;5.63;;;;;;;27.53;37.06;99656.53;5131412;27;20096;-66
2021/09/10 06:49:15;;;;;;;7.20;5.40;;;;;;;26.70;38.92;99652.56;5130115;27;20033;-66
2021/09/10 06:51:41;;;;;;;7.60;5.53;;;;;;;26.13;40.08;99664.75;5131410;27;20019;-67
2021/09/10 06:54:06;;;;;;;9.10;5.95;;;;;;;25.71;41.19;99656.38;5128402;27;20035;-66
2021/09/10 06:56:31;;;;;;;6.93;6.22;;;;;;;25.37;42.28;99670.41;5112849;27;20035;-65
2021/09/10 06:58:57;;;;;;;10.63;6.90;;;;;;;24.89;43.63;99656.28;5113399;28;20546;-65
2021/09/10 07:01:22;;;;;;;9.82;6.47;;;;;;;24.54;44.39;99666.81;5130294;28;20027;-67
2021/09/10 07:03:48;;;;;;;7.70;5.97;;;;;;;24.06;44.94;99653.41;5131218;27;20023;-65
2021/09/10 07:06:13;;;;;;;7.63;5.97;;;;;;;24.01;45.69;99671.47;5128720;27;20093;-62
2021/09/10 07:08:39;;;;;;;10.43;5.80;;;;;;;23.94;46.31;99675.06;5131144;27;20070;-64
2021/09/10 07:11:04;;;;;;;10.52;6.65;;;;;;;23.94;46.29;99693.34;5131584;27;20034;-63
2021/09/10 07:13:30;;;;;;;8.02;5.93;;;;;;;23.65;46.38;99676.41;5118827;28;20481;-63
2021/09/10 07:15:56;;;;;;;6.00;5.40;;;;;;;23.51;46.82;99684.66;5130592;28;20426;-63
2021/09/10 07:18:21;;;;;;;6.78;5.57;;;;;;;23.25;47.43;99690.97;5129837;27;20016;-61
2021/09/10 07:20:47;;;;;;;8.18;6.00;;;;;;;22.91;48.11;99681.91;5130802;27;20031;-59
2021/09/10 07:23:13;;;;;;;6.80;5.32;;;;;;;22.57;48.37;99662.75;5130994;27;20106;-60
2021/09/10 07:25:39;;;;;;;8.40;5.80;;;;;;;22.70;48.85;99694.69;5128799;27;20130;-60
2021/09/10 07:28:05;;;;;;;7.82;5.60;;;;;;;22.70;48.94;99708.34;5128814;27;20491;-61
2021/09/10 07:30:31;;;;;;;6.97;5.32;;;;;;;22.67;48.64;99699.72;5126404;27;20110;-62
2021/09/10 07:32:57;;;;;;;6.85;5.55;;;;;;;22.71;48.63;99699.09;5130462;27;20444;-61
2021/09/10 07:35:22;;;;;;;7.05;5.38;;;;;;;22.63;49.41;99693.81;5129789;27;20023;-61
2021/09/10 07:37:48;;;;;;;7.43;5.20;;;;;;;22.66;49.34;99704.31;5114819;28;20027;-62
2021/09/10 07:40:15;;;;;;;7.22;5.38;;;;;;;22.55;49.10;99674.91;5114708;27;20027;-60
2021/09/10 07:42:41;;;;;;;9.35;5.63;;;;;;;22.68;49.06;99701.38;5112831;27;20034;-63
2021/09/10 07:45:08;;;;;;;10.23;5.60;;;;;;;22.45;49.46;99673.41;5134663;27;20160;-65
2021/09/10 07:47:34;;;;;;;7.72;5.93;;;;;;;22.67;49.77;99702.44;5133307;27;20050;-66
2021/09/10 07:49:59;;;;;;;6.47;5.75;;;;;;;22.55;50.02;99704.94;5134307;27;20171;-62
2021/09/10 07:52:25;;;;;;;8.70;5.85;;;;;;;22.61;49.39;99701.38;5132735;27;20436;-62
2021/09/10 07:54:50;;;;;;;7.45;5.30;;;;;;;22.65;49.66;99705.34;5132338;27;20031;-64
2021/09/10 07:57:16;;;;;;;8.63;5.85;;;;;;;22.51;50.09;99708.06;5133312;27;20031;-64
2021/09/10 07:59:41;;;;;;;10.70;5.38;;;;;;;22.48;50.34;99708.47;5134941;27;20416;-65
2021/09/10 08:02:06;;;;;;;8.15;5.82;;;;;;;22.44;50.19;99709.91;5134561;27;20054;-64
2021/09/10 08:04:32;;;;;;;9.27;5.40;;;;;;;22.17;51.00;99714.41;5134614;27;20027;-64
2021/09/10 08:06:58;;;;;;;9.18;5.72;;;;;;;21.94;52.21;99708.25;5122311;27;20396;-65
2021/09/10 08:09:23;;;;;;;7.28;5.80;;;;;;;21.79;52.26;99721.97;5118018;27;20537;-63
2021/09/10 08:11:49;;;;;;;9.02;5.72;;;;;;;21.48;53.02;99700.59;5113134;28;20062;-65
2021/09/10 08:14:14;;;;;;;9.75;5.93;;;;;;;21.50;53.68;99726.56;5094060;28;20050;-64
2021/09/10 08:16:40;;;;;;;7.50;5.85;;;;;;;21.46;53.76;99719.84;5115156;27;20054;-64
2021/09/10 08:19:06;;;;;;;7.70;5.97;;;;;;;21.37;54.28;99727.31;5112172;28;20046;-64
2021/09/10 08:21:31;;;;;;;8.00;5.63;;;;;;;21.33;54.35;99717.84;5112456;28;20031;-63
2021/09/10 08:23:57;;;;;;;8.38;5.90;;;;;;;21.45;54.61;99722.75;5112657;28;20035;-64
2021/09/10 08:26:23;;;;;;;6.75;5.72;;;;;;;21.65;53.51;99726.50;5114346;27;20077;-63
2021/09/10 08:28:48;;;;;;;8.40;5.82;;;;;;;22.01;52.79;99730.06;5111073;27;20487;-65
2021/09/10 08:31:14;;;;;;;6.82;5.63;;;;;;;22.30;51.70;99725.38;5106502;28;20039;-65
2021/09/10 08:33:39;;;;;;;8.88;5.35;;;;;;;22.54;50.83;99733.25;5112497;28;20080;-65
2021/09/10 08:36:05;;;;;;;7.25;6.20;;;;;;;22.71;50.73;99734.56;5122855;27;20038;-64
2021/09/10 08:38:31;;;;;;;7.43;5.60;;;;;;;22.83;50.31;99731.22;5133667;27;20035;-65
2021/09/10 08:40:58;;;;;;;9.73;5.72;;;;;;;22.87;50.02;99729.75;5132901;27;20038;-65
2021/09/10 08:43:25;;;;;;;8.48;5.75;;;;;;;22.88;50.38;99734.16;5132806;27;20028;-64
2021/09/10 08:45:52;;;;;;;9.85;6.03;;;;;;;22.88;50.61;99728.72;5133976;27;20035;-65
2021/09/10 08:48:18;;;;;;;6.18;5.57;;;;;;;22.77;50.58;99746.53;5132567;27;20110;-65
2021/09/10 08:50:45;;;;;;;7.25;5.70;;;;;;;22.72;50.76;99744.44;5119117;27;20031;-66
2021/09/10 08:53:11;;;;;;;10.85;6.13;;;;;;;22.61;50.80;99723.19;5127708;27;20042;-64
2021/09/10 08:55:37;;;;;;;6.60;5.85;;;;;;;22.77;50.29;99714.63;5132641;27;20456;-65
2021/09/10 08:58:02;;;;;;;7.03;5.72;;;;;;;22.91;49.89;99712.75;5130734;27;20023;-65
2021/09/10 09:00:33;;;;;;;8.40;5.68;;;;;;;23.12;48.96;99707.31;5132201;27;20118;-64
2021/09/10 09:03:16;;;;;;;10.18;5.93;;;;;;;23.46;48.57;99730.06;5133805;27;20037;-66
2021/09/10 09:05:42;;;;;;;11.95;5.88;;;;;;;23.80;47.80;99734.41;5133809;27;20092;-65
2021/09/10 09:08:18;;;;;;;10.18;5.68;;;;;;;24.08;47.45;99730.59;5132361;27;20091;-63
2021/09/10 09:10:59;;;;;;;11.95;5.82;;;;;;;24.45;46.92;99734.63;5131660;27;20023;-65
2021/09/10 09:13:30;;;;;;;9.07;5.60;;;;;;;24.45;46.05;99712.75;5133294;27;20764;-64
2021/09/10 09:16:13;;;;;;;6.55;5.40;;;;;;;25.14;45.00;99731.31;5133530;27;20035;-65
2021/09/10 09:18:42;;;;;;;6.53;5.18;;;;;;;25.25;44.50;99744.28;5133559;27;20043;-63
2021/09/10 09:21:07;;;;;;;6.05;4.85;;;;;;;25.40;43.68;99712.97;5130106;27;20119;-64
2021/09/10 09:23:33;;;;;;;5.75;4.88;;;;;;;25.45;43.33;99719.47;5133989;27;20463;-64
2021/09/10 09:25:58;;;;;;;5.93;5.18;;;;;;;25.32;43.59;99722.31;5132266;27;20054;-64
2021/09/10 09:28:25;;;;;;;6.45;4.60;;;;;;;25.16;44.36;99734.66;5133425;27;20388;-64
2021/09/10 09:30:58;;;;;;;6.93;5.18;;;;;;;25.05;44.31;99734.31;5131281;27;20057;-65
2021/09/10 09:33:28;;;;;;;6.25;5.30;;;;;;;24.75;44.80;99726.72;5131652;27;20040;-63
2021/09/10 09:36:02;;;;;;;5.80;5.07;;;;;;;24.55;45.40;99734.16;5125369;27;20118;-65
2021/09/10 09:38:30;;;;;;;6.63;4.80;;;;;;;24.51;45.52;99742.81;5111294;28;20020;-65
2021/09/10 09:40:59;;;;;;;5.68;4.63;;;;;;;24.40;45.07;99724.38;5112912;27;20548;-64
2021/09/10 09:43:31;;;;;;;5.30;4.35;;;;;;;24.59;44.90;99740.88;5112637;28;20038;-65
2021/09/10 09:45:57;;;;;;;7.15;5.00;;;;;;;24.65;44.91;99731.81;5112733;27;20093;-65
2021/09/10 09:48:28;;;;;;;6.55;5.35;;;;;;;24.63;44.81;99712.03;5111963;28;20476;-65
2021/09/10 09:50:57;;;;;;;8.35;4.85;;;;;;;24.86;44.72;99743.53;5094611;27;20114;-64
2021/09/10 09:53:23;;;;;;;7.93;5.00;;;;;;;24.68;44.10;99725.03;5112242;28;20350;-66
2021/09/10 09:55:49;;;;;;;6.22;5.07;;;;;;;24.82;44.52;99745.00;5111962;28;20476;-64
2021/09/10 09:58:16;;;;;;;5.07;4.57;;;;;;;24.96;43.57;99749.34;5109770;28;20028;-63
2021/09/10 10:00:45;;;;;;;5.97;4.50;;;;;;;25.13;43.41;99744.16;5112273;28;20457;-65
2021/09/10 10:03:11;;;;;;;8.70;4.55;;;;;;;25.15;43.21;99735.72;5111679;27;20042;-64
2021/09/10 10:06:01;;;;;;;6.97;4.68;;;;;;;25.25;43.27;99718.81;5112011;28;20453;-64
2021/09/10 10:08:36;;;;;;;7.32;4.30;;;;;;;25.46;42.76;99744.97;5112066;28;20081;-65
2021/09/10 10:11:12;;;;;;;7.65;4.70;;;;;;;25.70;41.91;99740.56;5111088;28;20388;-64
2021/09/10 10:13:38;;;;;;;6.88;4.07;;;;;;;25.66;41.30;99736.56;5112805;27;20047;-64
2021/09/10 10:16:04;;;;;;;6.85;4.43;;;;;;;25.77;40.49;99726.75;5126496;27;20114;-67
2021/09/10 10:18:36;;;;;;;4.78;4.20;;;;;;;26.10;40.38;99739.28;5131232;27;20118;-67
2021/09/10 10:21:02;;;;;;;8.18;4.75;;;;;;;26.20;40.12;99742.34;5130829;27;20035;-66
2021/09/10 10:23:45;;;;;;;7.65;4.43;;;;;;;26.62;39.89;99744.34;5131710;27;20377;-67
2021/09/10 10:26:20;;;;;;;5.00;4.20;;;;;;;26.42;39.28;99728.16;5116751;27;20039;-66
2021/09/10 10:28:50;;;;;;;5.45;3.83;;;;;;;26.26;38.97;99747.97;5107627;28;20031;-68
2021/09/10 10:32:02;;;;;;;6.85;4.03;;;;;;;26.24;39.66;99748.22;5106460;28;20082;-68
2021/09/10 10:34:35;;;;;;;4.95;3.63;;;;;;;25.77;39.57;99756.94;5113046;27;20184;-63
2021/09/10 10:37:02;;;;;;;4.22;3.80;;;;;;;25.59;40.06;99755.00;5115319;27;20035;-64
2021/09/10 10:39:31;;;;;;;6.65;3.88;;;;;;;25.60;40.31;99745.69;5118126;27;20038;-62
2021/09/10 10:42:00;;;;;;;3.92;3.47;;;;;;;25.71;40.29;99752.34;5131151;27;20035;-66
2021/09/10 10:44:35;;;;;;;5.68;3.72;;;;;;;25.72;40.25;99746.66;5131718;27;20031;-61
2021/09/10 10:47:08;;;;;;;5.10;4.23;;;;;;;25.45;41.50;99754.25;5129924;27;20487;-65
2021/09/10 10:49:41;;;;;;;5.93;3.90;;;;;;;25.19;41.63;99745.19;5130817;27;20035;-62
2021/09/10 10:52:37;;;;;;;4.82;3.58;;;;;;;25.11;41.96;99742.72;5130269;27;20042;-65
2021/09/10 10:55:24;;;;;;;6.43;3.95;;;;;;;25.14;41.73;99759.53;5116816;27;20046;-63
2021/09/10 10:57:52;;;;;;;6.88;4.25;;;;;;;25.06;41.66;99759.81;5126706;27;20119;-63
2021/09/10 11:00:30;;;;;;;5.85;3.85;;;;;;;25.31;41.65;99754.34;5127790;27;20035;-63
2021/09/10 11:03:14;;;;;;;6.35;4.47;;;;;;;25.46;41.81;99759.50;5110600;28;20044;-64
2021/09/10 11:05:46;;;;;;;7.28;4.45;;;;;;;25.15;42.46;99753.00;5129725;28;20388;-63
2021/09/10 11:08:17;;;;;;;10.65;4.88;;;;;;;25.32;42.09;99764.28;5129716;28;20529;-64
2021/09/10 11:10:43;;;;;;;8.02;4.53;;;;;;;25.23;41.86;99760.09;5134704;27;20027;-63
2021/09/10 11:13:08;;;;;;;5.78;4.53;;;;;;;25.02;41.68;99732.03;5135787;27;20073;-63
2021/09/10 11:15:36;;;;;;;5.70;4.43;;;;;;;24.94;42.71;99773.38;5134676;27;20099;-63
2021/09/10 11:18:03;;;;;;;6.38;3.90;;;;;;;24.74;42.56;99768.81;5127124;27;20035;-64
2021/09/10 11:20:50;;;;;;;6.70;4.22;;;;;;;24.96;42.65;99779.47;5115417;28;20039;-63
2021/09/10 11:23:27;;;;;;;5.50;4.38;;;;;;;24.72;43.91;99784.63;5115078;28;20148;-63
2021/09/10 11:25:56;;;;;;;6.22;4.15;;;;;;;24.75;43.40;99780.66;5113520;28;20194;-63
2021/09/10 11:28:25;;;;;;;5.65;4.20;;;;;;;24.57;43.89;99778.56;5115371;27;20077;-62